createdAt,value
2016-02-01T00:00:09.489Z,100458
2016-02-01T00:00:20.867Z,100472
2016-02-01T00:00:31.601Z,100466
2016-02-01T00:00:42.413Z,100463
2016-02-01T00:04:56.834Z,100479
2016-02-01T00:23:05.316Z,100503
2016-02-01T00:23:16.363Z,100490
2016-02-01T00:23:27.538Z,100487
2016-02-01T00:23:38.288Z,100490
2016-02-01T00:23:49.038Z,100492
2016-02-01T00:23:59.569Z,100490
2016-02-01T00:25:10.475Z,100498
2016-02-01T00:26:15.978Z,100489
2016-02-01T00:26:26.779Z,100498
2016-02-01T00:26:37.575Z,100506
2016-02-01T00:26:47.997Z,100503
2016-02-01T00:26:58.529Z,100506
2016-02-01T00:27:09.263Z,100492
2016-02-01T00:27:19.669Z,100506
2016-02-01T00:27:30.142Z,100500
2016-02-01T00:27:40.970Z,100503
2016-02-01T00:27:52.079Z,100498
2016-02-01T00:28:02.767Z,100503
2016-02-01T00:28:13.235Z,100509
2016-02-01T00:28:23.769Z,100498
2016-02-01T00:28:34.769Z,100506
2016-02-01T00:28:45.333Z,100509
2016-02-01T00:28:56.114Z,100503
2016-02-01T00:29:06.755Z,100498
2016-02-01T00:29:17.395Z,100498
2016-02-01T00:29:27.712Z,100500
2016-02-01T00:29:38.509Z,100498
2016-02-01T00:29:49.103Z,100506
2016-02-01T00:29:59.681Z,100498
2016-02-01T00:30:11.040Z,100506
2016-02-01T00:30:23.209Z,100503
2016-02-01T00:30:33.881Z,100500
2016-02-01T00:30:44.444Z,100492
2016-02-01T00:30:54.959Z,100492
2016-02-01T00:31:05.772Z,100498
2016-02-01T00:31:16.600Z,100498
2016-02-01T00:31:27.409Z,100492
2016-02-01T00:31:46.894Z,100495
2016-02-01T00:31:57.331Z,100500
2016-02-01T00:32:07.753Z,100498
2016-02-01T00:32:18.488Z,100495
2016-02-01T00:32:29.126Z,100498
2016-02-01T00:32:39.704Z,100506
2016-02-01T00:32:50.298Z,100503
2016-02-01T00:33:01.173Z,100503
2016-02-01T00:33:11.689Z,100503
2016-02-01T00:33:22.548Z,100501
2016-02-01T00:33:33.421Z,100503
2016-02-01T00:33:43.890Z,100495
2016-02-01T00:33:54.218Z,100492
2016-02-01T00:34:05.171Z,100501
2016-02-01T00:34:16.046Z,100492
2016-02-01T00:34:26.793Z,100492
2016-02-01T00:34:37.762Z,100503
2016-02-01T00:34:48.277Z,100495
2016-02-01T00:34:58.996Z,100500
2016-02-01T00:41:19.598Z,100517
2016-02-01T00:50:06.073Z,100512
2016-02-01T00:50:17.420Z,100495
2016-02-01T00:50:28.263Z,100506
2016-02-01T00:50:39.279Z,100506
2016-02-01T00:50:50.482Z,100509
2016-02-01T00:51:01.404Z,100509
2016-02-01T00:51:12.219Z,100509
2016-02-01T00:51:22.937Z,100506
2016-02-01T00:51:34.047Z,100509
2016-02-01T00:51:44.875Z,100501
2016-02-01T00:51:55.984Z,100506
2016-02-01T00:52:06.594Z,100509
2016-02-01T00:52:17.534Z,100503
2016-02-01T00:52:27.940Z,100506
2016-02-01T00:52:38.487Z,100517
2016-02-01T00:52:49.675Z,100509
2016-02-01T00:53:00.534Z,100506
2016-02-01T00:53:11.256Z,100512
2016-02-01T00:53:21.662Z,100514
2016-02-01T00:53:32.182Z,100514
2016-02-01T00:53:42.963Z,100523
2016-02-01T00:53:53.572Z,100514
2016-02-01T00:54:03.932Z,100509
2016-02-01T00:54:14.684Z,100512
2016-02-01T00:54:25.277Z,100523
2016-02-01T00:54:35.684Z,100509
2016-02-01T00:54:46.152Z,100515
2016-02-01T00:54:56.996Z,100515
2016-02-01T00:55:08.327Z,100506
2016-02-01T00:55:20.358Z,100517
2016-02-01T00:55:31.202Z,100506
2016-02-01T00:55:41.862Z,100512
2016-02-01T00:55:52.253Z,100520
2016-02-01T00:56:03.050Z,100520
2016-02-01T00:56:13.585Z,100523
2016-02-01T00:56:24.148Z,100520
2016-02-01T00:56:34.804Z,100512
2016-02-01T00:56:45.382Z,100512
2016-02-01T00:56:56.476Z,100512
2016-02-01T00:57:07.148Z,100517
2016-02-01T00:57:17.759Z,100520
2016-02-01T00:57:28.650Z,100504
2016-02-01T00:57:39.228Z,100509
2016-02-01T00:57:50.931Z,100509
2016-02-01T00:58:01.696Z,100520
2016-02-01T00:58:12.417Z,100509
2016-02-01T00:58:23.183Z,100503
2016-02-01T00:58:33.667Z,100506
2016-02-01T00:58:44.245Z,100506
2016-02-01T00:59:15.826Z,100509
2016-02-01T00:59:26.608Z,100503
2016-02-01T00:59:37.108Z,100495
2016-02-01T00:59:47.686Z,100501
2016-02-01T00:59:58.014Z,100501
2016-02-01T01:00:08.842Z,100501
2016-02-01T01:00:19.893Z,100495
2016-02-01T01:00:31.237Z,100495
2016-02-01T01:00:43.877Z,100501
2016-02-01T01:00:54.987Z,100506
2016-02-01T01:01:05.659Z,100498
2016-02-01T01:01:15.990Z,100501
2016-02-01T01:01:26.240Z,100498
2016-02-01T01:01:36.708Z,100498
2016-02-01T01:02:41.774Z,100503
2016-02-01T01:02:52.305Z,100509
2016-02-01T01:03:02.836Z,100514
2016-02-01T01:03:13.260Z,100500
2016-02-01T01:03:24.229Z,100506
2016-02-01T01:03:34.729Z,100511
2016-02-01T01:03:45.198Z,100517
2016-02-01T01:03:55.776Z,100512
2016-02-01T01:04:06.229Z,100495
2016-02-01T01:04:16.607Z,100514
2016-02-01T01:04:26.966Z,100503
2016-02-01T01:04:37.357Z,100511
2016-02-01T01:04:48.063Z,100501
2016-02-01T01:04:58.923Z,100495
2016-02-01T01:05:10.032Z,100512
2016-02-01T01:05:22.347Z,100498
2016-02-01T01:05:33.004Z,100492
2016-02-01T01:05:43.441Z,100503
2016-02-01T01:05:54.144Z,100490
2016-02-01T01:06:05.457Z,100495
2016-02-01T01:06:16.084Z,100490
2016-02-01T01:06:26.803Z,100490
2016-02-01T01:06:37.474Z,100498
2016-02-01T01:06:48.256Z,100495
2016-02-01T01:06:58.740Z,100493
2016-02-01T01:07:10.115Z,100484
2016-02-01T01:07:20.649Z,100490
2016-02-01T01:07:31.102Z,100495
2016-02-01T01:07:41.602Z,100487
2016-02-01T01:07:52.087Z,100490
2016-02-01T01:08:24.418Z,100493
2016-02-01T01:08:35.230Z,100493
2016-02-01T01:08:46.027Z,100495
2016-02-01T01:08:57.027Z,100493
2016-02-01T01:09:07.996Z,100493
2016-02-01T01:09:18.846Z,100487
2016-02-01T01:09:29.643Z,100493
2016-02-01T01:09:40.377Z,100493
2016-02-01T01:09:50.955Z,100490
2016-02-01T01:10:01.643Z,100485
2016-02-01T01:10:14.349Z,100493
2016-02-01T01:10:25.614Z,100485
2016-02-01T01:10:36.364Z,100487
2016-02-01T01:10:47.161Z,100487
2016-02-01T01:10:57.833Z,100485
2016-02-01T01:11:08.817Z,100487
2016-02-01T01:11:19.649Z,100479
2016-02-01T01:11:30.461Z,100479
2016-02-01T01:11:41.180Z,100485
2016-02-01T01:11:51.820Z,100482
2016-02-01T01:12:02.570Z,100485
2016-02-01T01:12:13.808Z,100482
2016-02-01T01:12:26.011Z,100479
2016-02-01T01:12:36.605Z,100485
2016-02-01T01:12:47.464Z,100482
2016-02-01T01:12:58.370Z,100485
2016-02-01T01:13:09.089Z,100493
2016-02-01T01:13:19.607Z,100490
2016-02-01T01:13:30.091Z,100493
2016-02-01T01:13:40.811Z,100493
2016-02-01T01:13:51.170Z,100498
2016-02-01T01:14:01.873Z,100498
2016-02-01T01:14:12.798Z,100490
2016-02-01T01:14:23.329Z,100490
2016-02-01T01:14:33.861Z,100498
2016-02-01T01:14:44.345Z,100490
2016-02-01T01:14:55.064Z,100501
2016-02-01T01:15:06.048Z,100501
2016-02-01T01:15:19.097Z,100498
2016-02-01T01:15:31.347Z,100504
2016-02-01T01:15:42.253Z,100507
2016-02-01T01:15:52.925Z,100504
2016-02-01T01:16:03.675Z,100504
2016-02-01T01:16:14.334Z,100504
2016-02-01T01:16:25.084Z,100496
2016-02-01T01:16:36.038Z,100501
2016-02-01T01:16:46.850Z,100509
2016-02-01T01:16:57.288Z,100501
2016-02-01T01:17:08.038Z,100507
2016-02-01T01:17:25.931Z,100507
2016-02-01T01:17:36.681Z,100504
2016-02-01T01:17:47.587Z,100515
2016-02-01T01:18:00.431Z,100512
2016-02-01T01:18:11.181Z,100506
2016-02-01T01:18:21.636Z,100509
2016-02-01T01:18:32.402Z,100520
2016-02-01T01:18:43.152Z,100509
2016-02-01T01:18:54.371Z,100509
2016-02-01T01:19:05.371Z,100509
2016-02-01T01:19:16.296Z,100512
2016-02-01T01:19:27.030Z,100512
2016-02-01T01:19:37.905Z,100515
2016-02-01T01:19:48.780Z,100509
2016-02-01T01:19:59.764Z,100509
2016-02-01T01:21:00.724Z,100512
2016-02-01T01:21:11.866Z,100512
2016-02-01T01:21:22.712Z,100515
2016-02-01T01:21:33.446Z,100518
2016-02-01T01:21:43.962Z,100518
2016-02-01T01:21:55.009Z,100523
2016-02-01T01:22:05.649Z,100529
2016-02-01T01:22:16.308Z,100521
2016-02-01T01:22:26.777Z,100526
2016-02-01T01:22:37.371Z,100534
2016-02-01T01:22:47.996Z,100520
2016-02-01T01:22:58.996Z,100526
2016-02-01T01:23:09.746Z,100537
2016-02-01T01:23:20.561Z,100534
2016-02-01T01:23:31.265Z,100523
2016-02-01T01:23:41.811Z,100537
2016-02-01T01:23:52.436Z,100540
2016-02-01T01:24:03.405Z,100540
2016-02-01T01:24:13.905Z,100537
2016-02-01T01:24:24.548Z,100540
2016-02-01T01:24:35.235Z,100534
2016-02-01T01:24:45.907Z,100542
2016-02-01T01:24:56.485Z,100545
2016-02-01T01:25:07.579Z,100545
2016-02-01T01:25:18.863Z,100545
2016-02-01T01:25:29.363Z,100540
2016-02-01T01:25:40.207Z,100539
2016-02-01T01:25:50.738Z,100553
2016-02-01T01:26:01.426Z,100537
2016-02-01T01:26:12.957Z,100542
2016-02-01T01:26:43.273Z,100542
2016-02-01T01:26:53.788Z,100551
2016-02-01T01:27:04.210Z,100553
2016-02-01T01:27:15.276Z,100556
2016-02-01T01:27:25.729Z,100548
2016-02-01T01:27:36.166Z,100548
2016-02-01T01:27:46.901Z,100548
2016-02-01T01:27:58.088Z,100556
2016-02-01T01:28:08.651Z,100551
2016-02-01T01:28:19.324Z,100559
2016-02-01T01:28:29.887Z,100551
2016-02-01T01:28:40.496Z,100559
2016-02-01T01:28:51.074Z,100556
2016-02-01T01:29:01.699Z,100564
2016-02-01T01:30:08.250Z,100562
2016-02-01T01:30:19.300Z,100559
2016-02-01T01:30:29.863Z,100562
2016-02-01T01:30:40.456Z,100556
2016-02-01T01:30:51.144Z,100556
2016-02-01T01:31:02.019Z,100556
2016-02-01T01:31:12.628Z,100556
2016-02-01T01:31:23.569Z,100564
2016-02-01T01:31:34.084Z,100564
2016-02-01T01:31:44.662Z,100559
2016-02-01T01:31:55.287Z,100562
2016-02-01T01:32:05.912Z,100559
2016-02-01T01:32:16.303Z,100559
2016-02-01T01:32:26.727Z,100548
2016-02-01T01:32:37.508Z,100559
2016-02-01T01:32:47.821Z,100556
2016-02-01T01:32:59.633Z,100564
2016-02-01T01:33:10.305Z,100564
2016-02-01T01:33:20.714Z,100562
2016-02-01T01:33:31.324Z,100556
2016-02-01T01:33:42.574Z,100551
2016-02-01T01:33:53.449Z,100562
2016-02-01T01:34:03.934Z,100551
2016-02-01T01:34:14.434Z,100556
2016-02-01T01:34:25.109Z,100556
2016-02-01T01:34:35.562Z,100551
2016-02-01T01:34:47.359Z,100567
2016-02-01T01:34:57.875Z,100562
2016-02-01T01:35:09.625Z,100562
2016-02-01T01:36:10.658Z,100570
2016-02-01T01:36:21.426Z,100562
2016-02-01T01:36:31.942Z,100564
2016-02-01T01:36:42.239Z,100573
2016-02-01T01:36:53.020Z,100564
2016-02-01T01:37:03.723Z,100564
2016-02-01T01:37:14.551Z,100556
2016-02-01T01:37:25.242Z,100570
2016-02-01T01:37:35.851Z,100562
2016-02-01T01:37:46.664Z,100561
2016-02-01T01:37:57.226Z,100564
2016-02-01T01:38:07.945Z,100559
2016-02-01T01:38:18.604Z,100562
2016-02-01T01:38:29.293Z,100559
2016-02-01T01:38:40.137Z,100559
2016-02-01T01:38:50.887Z,100562
2016-02-01T01:39:01.480Z,100564
2016-02-01T01:39:12.058Z,100556
2016-02-01T01:39:23.529Z,100567
2016-02-01T01:39:33.842Z,100567
2016-02-01T01:39:44.670Z,100564
2016-02-01T01:39:55.467Z,100564
2016-02-01T01:40:06.326Z,100562
2016-02-01T01:44:49.952Z,100562
2016-02-01T01:45:00.499Z,100559
2016-02-01T01:45:11.421Z,100556
2016-02-01T01:45:23.220Z,100556
2016-02-01T01:45:33.970Z,100562
2016-02-01T01:45:44.517Z,100554
2016-02-01T01:45:55.267Z,100565
2016-02-01T01:46:06.189Z,100567
2016-02-01T01:46:16.892Z,100554
2016-02-01T01:46:27.364Z,100554
2016-02-01T01:46:38.004Z,100559
2016-02-01T01:46:48.676Z,100559
2016-02-01T01:46:59.395Z,100567
2016-02-01T01:47:09.911Z,100567
2016-02-01T01:47:20.695Z,100564
2016-02-01T01:47:31.273Z,100553
2016-02-01T01:47:41.851Z,100567
2016-02-01T01:47:52.601Z,100562
2016-02-01T01:48:03.445Z,100570
2016-02-01T01:48:14.039Z,100562
2016-02-01T01:48:24.604Z,100573
2016-02-01T01:48:35.573Z,100567
2016-02-01T01:48:46.167Z,100570
2016-02-01T01:48:56.870Z,100576
2016-02-01T01:49:07.463Z,100570
2016-02-01T01:49:19.292Z,100570
2016-02-01T01:49:29.950Z,100565
2016-02-01T01:49:40.669Z,100570
2016-02-01T01:49:51.357Z,100576
2016-02-01T01:50:57.535Z,100573
2016-02-01T01:51:08.097Z,100567
2016-02-01T01:51:18.660Z,100567
2016-02-01T01:51:29.459Z,100570
2016-02-01T01:51:40.552Z,100568
2016-02-01T01:51:51.209Z,100568
2016-02-01T01:52:01.709Z,100579
2016-02-01T01:52:12.381Z,100570
2016-02-01T01:52:23.290Z,100579
2016-02-01T01:52:33.571Z,100573
2016-02-01T01:52:44.134Z,100573
2016-02-01T01:52:54.790Z,100570
2016-02-01T01:53:05.634Z,100581
2016-02-01T01:53:16.196Z,100573
2016-02-01T01:53:26.949Z,100570
2016-02-01T01:53:37.590Z,100570
2016-02-01T01:54:17.481Z,100578
2016-02-01T01:54:27.937Z,100578
2016-02-01T01:54:38.812Z,100573
2016-02-01T01:54:49.297Z,100573
2016-02-01T01:55:00.031Z,100573
2016-02-01T01:55:10.719Z,100578
2016-02-01T01:55:22.127Z,100576
2016-02-01T01:55:33.236Z,100581
2016-02-01T01:55:43.564Z,100576
2016-02-01T01:55:53.846Z,100591
2016-02-01T01:56:04.408Z,100586
2016-02-01T01:56:14.908Z,100591
2016-02-01T01:56:25.692Z,100586
2016-02-01T01:56:36.302Z,100567
2016-02-01T02:03:13.667Z,100576
2016-02-01T02:03:24.308Z,100574
2016-02-01T02:03:34.936Z,100579
2016-02-01T02:03:45.764Z,100571
2016-02-01T02:03:56.264Z,100582
2016-02-01T02:04:07.764Z,100576
2016-02-01T02:04:18.405Z,100586
2016-02-01T02:04:29.189Z,100579
2016-02-01T02:04:39.678Z,100576
2016-02-01T02:04:50.194Z,100586
2016-02-01T02:05:01.522Z,100573
2016-02-01T02:05:13.194Z,100582
2016-02-01T02:05:24.147Z,100579
2016-02-01T02:05:34.948Z,100576
2016-02-01T02:05:45.620Z,100589
2016-02-01T02:05:56.088Z,100581
2016-02-01T02:06:06.729Z,100581
2016-02-01T02:06:17.604Z,100573
2016-02-01T02:06:28.135Z,100586
2016-02-01T02:06:39.280Z,100586
2016-02-01T02:06:49.702Z,100586
2016-02-01T02:07:00.467Z,100586
2016-02-01T02:07:11.889Z,100589
2016-02-01T02:07:23.874Z,100589
2016-02-01T02:07:34.438Z,100581
2016-02-01T02:07:45.094Z,100589
2016-02-01T02:07:55.673Z,100581
2016-02-01T02:08:06.235Z,100586
2016-02-01T02:08:17.376Z,100581
2016-02-01T02:08:28.219Z,100597
2016-02-01T02:08:38.988Z,100600
2016-02-01T02:08:49.660Z,100597
2016-02-01T02:09:00.176Z,100591
2016-02-01T02:09:10.832Z,100589
2016-02-01T02:09:23.347Z,100594
2016-02-01T02:09:34.521Z,100594
2016-02-01T02:12:12.982Z,100600
2016-02-01T02:12:23.498Z,100594
2016-02-01T02:12:34.107Z,100600
2016-02-01T02:12:44.607Z,100603
2016-02-01T02:12:55.389Z,100597
2016-02-01T02:13:07.282Z,100594
2016-02-01T02:13:17.939Z,100597
2016-02-01T02:13:28.595Z,100597
2016-02-01T02:13:39.298Z,100591
2016-02-01T02:13:49.907Z,100594
2016-02-01T02:14:00.501Z,100586
2016-02-01T02:14:11.144Z,100589
2016-02-01T02:14:21.753Z,100588
2016-02-01T02:14:32.207Z,100581
2016-02-01T02:14:42.801Z,100581
2016-02-01T02:14:53.348Z,100586
2016-02-01T02:15:03.770Z,100586
2016-02-01T02:15:14.476Z,100597
2016-02-01T02:15:26.288Z,100591
2016-02-01T02:15:36.804Z,100594
2016-02-01T02:15:47.445Z,100591
2016-02-01T02:15:58.023Z,100589
2016-02-01T02:16:08.729Z,100597
2016-02-01T02:16:19.198Z,100594
2016-02-01T02:16:29.713Z,100586
2016-02-01T02:16:40.604Z,100597
2016-02-01T02:16:51.244Z,100603
2016-02-01T02:17:01.651Z,100597
2016-02-01T02:17:12.138Z,100594
2016-02-01T02:17:22.513Z,100594
2016-02-01T02:17:32.982Z,100603
2016-02-01T02:17:43.513Z,100597
2016-02-01T02:22:11.385Z,100616
2016-02-01T02:22:21.760Z,100622
2016-02-01T02:30:51.272Z,100616
2016-02-01T02:31:01.694Z,100619
2016-02-01T02:31:12.242Z,100613
2016-02-01T02:31:22.836Z,100608
2016-02-01T02:31:33.571Z,100616
2016-02-01T02:31:44.180Z,100616
2016-02-01T02:31:54.664Z,100597
2016-02-01T02:32:05.102Z,100610
2016-02-01T02:32:15.558Z,100613
2016-02-01T02:32:25.995Z,100608
2016-02-01T02:32:36.745Z,100608
2016-02-01T02:32:47.261Z,100622
2016-02-01T02:32:57.855Z,100611
2016-02-01T02:33:08.433Z,100613
2016-02-01T02:33:19.217Z,100602
2016-02-01T02:33:29.608Z,100616
2016-02-01T02:33:40.092Z,100619
2016-02-01T02:33:50.592Z,100608
2016-02-01T02:34:01.186Z,100611
2016-02-01T02:34:11.625Z,100608
2016-02-01T02:34:22.141Z,100608
2016-02-01T02:34:32.735Z,100605
2016-02-01T02:34:43.330Z,100605
2016-02-01T02:34:53.689Z,100610
2016-02-01T02:36:02.098Z,100599
2016-02-01T02:36:12.789Z,100608
2016-02-01T02:36:23.242Z,100605
2016-02-01T02:36:33.617Z,100611
2016-02-01T02:36:44.711Z,100613
2016-02-01T02:36:55.226Z,100602
2016-02-01T02:37:05.711Z,100619
2016-02-01T02:37:16.088Z,100608
2016-02-01T02:37:27.463Z,100602
2016-02-01T02:37:38.463Z,100602
2016-02-01T02:37:49.556Z,100613
2016-02-01T02:38:00.134Z,100613
2016-02-01T02:38:10.853Z,100613
2016-02-01T02:38:21.216Z,100613
2016-02-01T02:38:31.512Z,100608
2016-02-01T02:38:41.841Z,100613
2016-02-01T02:38:52.122Z,100630
2016-02-01T02:39:02.544Z,100608
2016-02-01T02:39:13.114Z,100611
2016-02-01T02:39:33.036Z,100613
2016-02-01T02:39:43.348Z,100619
2016-02-01T02:39:53.895Z,100613
2016-02-01T02:40:04.489Z,100619
2016-02-01T02:40:16.397Z,100619
2016-02-01T02:40:27.022Z,100616
2016-02-01T02:40:37.429Z,100613
2016-02-01T02:40:48.100Z,100624
2016-02-01T02:40:58.632Z,100616
2016-02-01T02:41:09.304Z,100622
2016-02-01T02:41:19.823Z,100619
2016-02-01T02:48:47.828Z,100636
2016-02-01T02:48:58.563Z,100636
2016-02-01T02:49:08.907Z,100638
2016-02-01T02:49:19.410Z,100633
2016-02-01T02:49:29.519Z,100647
2016-02-01T02:49:39.925Z,100625
2016-02-01T02:57:52.071Z,100630
2016-02-01T02:58:02.665Z,100613
2016-02-01T02:58:13.181Z,100622
2016-02-01T02:58:23.620Z,100630
2016-02-01T02:58:34.042Z,100613
2016-02-01T02:58:44.526Z,100619
2016-02-01T02:58:55.245Z,100624
2016-02-01T02:59:05.573Z,100630
2016-02-01T02:59:15.948Z,100632
2016-02-01T02:59:26.404Z,100619
2016-02-01T02:59:36.843Z,100621
2016-02-01T02:59:47.452Z,100613
2016-02-01T02:59:57.812Z,100622
2016-02-01T03:00:08.593Z,100611
2016-02-01T03:00:19.440Z,100608
2016-02-01T03:00:30.705Z,100614
2016-02-01T03:00:41.330Z,100608
2016-02-01T03:00:51.908Z,100611
2016-02-01T03:01:02.330Z,100608
2016-02-01T03:01:12.799Z,100608
2016-02-01T03:01:23.349Z,100606
2016-02-01T03:01:33.708Z,100605
2016-02-01T03:01:44.771Z,100614
2016-02-01T03:01:56.505Z,100614
2016-02-01T03:02:07.693Z,100611
2016-02-01T03:02:18.005Z,100605
2016-02-01T03:02:28.788Z,100605
2016-02-01T03:02:39.132Z,100608
2016-02-01T03:02:49.757Z,100603
2016-02-01T03:03:00.320Z,100605
2016-02-01T03:03:11.148Z,100605
2016-02-01T03:03:21.807Z,100614
2016-02-01T03:03:32.104Z,100608
2016-02-01T03:03:42.573Z,100611
2016-02-01T03:03:53.010Z,100611
2016-02-01T03:04:03.576Z,100608
2016-02-01T03:04:13.826Z,100608
2016-02-01T03:04:24.328Z,100605
2016-02-01T03:04:35.015Z,100614
2016-02-01T03:04:45.453Z,100611
2016-02-01T03:04:55.921Z,100611
2016-02-01T03:05:09.437Z,100600
2016-02-01T03:05:20.596Z,100605
2016-02-01T03:05:31.502Z,100602
2016-02-01T03:05:41.799Z,100597
2016-02-01T03:05:52.159Z,100608
2016-02-01T03:06:02.799Z,100603
2016-02-01T03:06:13.331Z,100608
2016-02-01T03:06:23.803Z,100608
2016-02-01T03:06:34.131Z,100608
2016-02-01T03:07:11.788Z,100608
2016-02-01T03:07:22.274Z,100608
2016-02-01T03:07:32.805Z,100608
2016-02-01T03:07:43.461Z,100600
2016-02-01T03:07:53.977Z,100605
2016-02-01T03:08:04.336Z,100605
2016-02-01T03:08:15.196Z,100608
2016-02-01T03:08:25.543Z,100608
2016-02-01T03:08:36.168Z,100597
2016-02-01T03:08:46.464Z,100591
2016-02-01T03:08:57.168Z,100597
2016-02-01T03:09:07.714Z,100605
2016-02-01T03:09:18.152Z,100602
2016-02-01T03:09:28.764Z,100605
2016-02-01T03:09:39.264Z,100597
2016-02-01T03:09:49.655Z,100589
2016-02-01T03:10:00.030Z,100594
2016-02-01T03:10:11.561Z,100602
2016-02-01T03:10:22.876Z,100594
2016-02-01T03:10:33.251Z,100600
2016-02-01T03:10:43.563Z,100597
2016-02-01T03:10:53.814Z,100600
2016-02-01T03:11:04.705Z,100594
2016-02-01T03:11:15.267Z,100605
2016-02-01T03:11:25.473Z,100597
2016-02-01T03:11:35.927Z,100605
2016-02-01T03:11:46.583Z,100605
2016-02-01T03:11:57.192Z,100597
2016-02-01T03:12:07.442Z,100605
2016-02-01T03:12:18.005Z,100591
2016-02-01T03:12:28.398Z,100600
2016-02-01T03:12:38.789Z,100594
2016-02-01T03:12:49.242Z,100592
2016-02-01T03:12:59.492Z,100600
2016-02-01T03:13:09.883Z,100608
2016-02-01T03:13:20.353Z,100603
2016-02-01T03:13:30.807Z,100606
2016-02-01T03:13:41.245Z,100597
2016-02-01T03:13:52.011Z,100592
2016-02-01T03:14:02.745Z,100600
2016-02-01T03:14:13.339Z,100597
2016-02-01T03:14:23.608Z,100605
2016-02-01T03:14:34.233Z,100600
2016-02-01T03:14:45.374Z,100592
2016-02-01T03:14:55.765Z,100594
2016-02-01T03:15:06.405Z,100611
2016-02-01T03:15:18.235Z,100605
2016-02-01T03:15:29.175Z,100600
2016-02-01T03:15:39.722Z,100611
2016-02-01T03:16:01.737Z,100608
2016-02-01T03:16:12.128Z,100597
2016-02-01T03:16:22.880Z,100608
2016-02-01T03:16:33.552Z,100605
2016-02-01T03:17:43.274Z,100605
2016-02-01T03:17:53.571Z,100605
2016-02-01T03:18:03.992Z,100602
2016-02-01T03:18:14.367Z,100608
2016-02-01T03:34:19.950Z,100616
2016-02-01T03:34:30.247Z,100611
2016-02-01T03:34:40.857Z,100605
2016-02-01T03:34:51.266Z,100614
2016-02-01T03:35:58.081Z,100611
2016-02-01T03:36:09.316Z,100605
2016-02-01T03:36:19.644Z,100614
2016-02-01T03:36:30.039Z,100611
2016-02-01T03:36:40.602Z,100622
2016-02-01T03:36:50.996Z,100614
2016-02-01T03:37:01.449Z,100614
2016-02-01T03:37:11.871Z,100606
2016-02-01T03:37:22.199Z,100606
2016-02-01T03:37:32.464Z,100619
2016-02-01T03:37:42.792Z,100616
2016-02-01T03:37:53.374Z,100614
2016-02-01T03:38:04.045Z,100616
2016-02-01T03:38:14.436Z,100614
2016-02-01T03:38:24.936Z,100622
2016-02-01T03:38:35.592Z,100616
2016-02-01T03:38:45.780Z,100616
2016-02-01T03:38:56.111Z,100608
2016-02-01T03:39:06.580Z,100619
2016-02-01T03:39:17.252Z,100619
2016-02-01T03:39:27.923Z,100624
2016-02-01T03:39:38.314Z,100613
2016-02-01T03:39:48.723Z,100619
2016-02-01T03:39:59.176Z,100627
2016-02-01T03:40:10.616Z,100622
2016-02-01T03:40:21.647Z,100616
2016-02-01T03:40:32.038Z,100630
2016-02-01T03:40:42.444Z,100613
2016-02-01T03:40:53.274Z,100627
2016-02-01T03:41:04.024Z,100627
2016-02-01T03:41:14.555Z,100616
2016-02-01T03:41:25.180Z,100619
2016-02-01T03:41:35.493Z,100624
2016-02-01T03:41:45.899Z,100616
2016-02-01T03:41:56.950Z,100616
2016-02-01T03:42:07.466Z,100621
2016-02-01T03:42:18.106Z,100616
2016-02-01T03:42:28.513Z,100624
2016-02-01T03:42:39.059Z,100619
2016-02-01T03:42:49.405Z,100619
2016-02-01T03:42:59.733Z,100613
2016-02-01T03:43:19.968Z,100624
2016-02-01T03:43:30.186Z,100619
2016-02-01T03:43:40.671Z,100622
2016-02-01T03:43:51.205Z,100624
2016-02-01T03:44:01.736Z,100627
2016-02-01T03:44:12.143Z,100616
2016-02-01T03:44:22.846Z,100619
2016-02-01T03:44:33.314Z,100619
2016-02-01T03:44:43.674Z,100610
2016-02-01T03:44:53.927Z,100627
2016-02-01T03:45:04.786Z,100619
2016-02-01T03:45:15.677Z,100621
2016-02-01T03:45:26.364Z,100616
2016-02-01T03:45:36.755Z,100619
2016-02-01T03:45:47.271Z,100616
2016-02-01T03:45:57.773Z,100616
2016-02-01T03:46:08.038Z,100608
2016-02-01T03:46:18.491Z,100613
2016-02-01T03:46:29.101Z,100622
2016-02-01T03:52:34.810Z,100630
2016-02-01T03:52:45.248Z,100633
2016-02-01T04:01:30.885Z,100646
2016-02-01T04:01:41.338Z,100638
2016-02-01T04:01:51.697Z,100641
2016-02-01T04:02:02.166Z,100636
2016-02-01T04:02:13.560Z,100644
2016-02-01T04:02:23.950Z,100641
2016-02-01T04:02:34.372Z,100641
2016-02-01T04:02:44.638Z,100630
2016-02-01T04:02:55.200Z,100649
2016-02-01T04:03:05.610Z,100644
2016-02-01T04:03:16.047Z,100647
2016-02-01T04:03:26.578Z,100646
2016-02-01T04:03:37.063Z,100638
2016-02-01T04:03:47.406Z,100647
2016-02-01T04:03:57.828Z,100638
2016-02-01T04:04:08.363Z,100641
2016-02-01T04:04:19.175Z,100649
2016-02-01T04:04:29.644Z,100652
2016-02-01T04:04:39.925Z,100641
2016-02-01T04:04:50.206Z,100644
2016-02-01T04:05:01.272Z,100646
2016-02-01T04:05:12.274Z,100641
2016-02-01T04:05:23.039Z,100641
2016-02-01T04:05:33.336Z,100652
2016-02-01T04:05:43.852Z,100646
2016-02-01T04:05:54.258Z,100646
2016-02-01T04:06:04.555Z,100638
2016-02-01T04:06:14.995Z,100641
2016-02-01T04:06:25.511Z,100644
2016-02-01T04:06:36.120Z,100641
2016-02-01T04:06:46.980Z,100638
2016-02-01T04:06:57.386Z,100649
2016-02-01T04:07:07.716Z,100649
2016-02-01T04:07:18.341Z,100646
2016-02-01T04:07:29.466Z,100646
2016-02-01T04:07:39.841Z,100641
2016-02-01T04:07:50.091Z,100646
2016-02-01T04:08:00.763Z,100646
2016-02-01T04:08:11.250Z,100646
2016-02-01T04:08:21.625Z,100644
2016-02-01T04:08:31.797Z,100659
2016-02-01T04:08:42.219Z,100655
2016-02-01T04:08:52.485Z,100649
2016-02-01T04:09:03.188Z,100644
2016-02-01T04:09:13.691Z,100657
2016-02-01T04:09:24.113Z,100647
2016-02-01T04:09:34.410Z,100649
2016-02-01T04:09:44.769Z,100655
2016-02-01T04:09:55.332Z,100652
2016-02-01T04:10:05.753Z,100639
2016-02-01T04:10:16.849Z,100639
2016-02-01T04:10:48.349Z,100650
2016-02-01T04:10:58.630Z,100641
2016-02-01T04:11:09.227Z,100649
2016-02-01T04:11:20.149Z,100641
2016-02-01T04:11:30.274Z,100641
2016-02-01T04:11:40.587Z,100641
2016-02-01T04:11:50.946Z,100641
2016-02-01T04:12:01.524Z,100647
2016-02-01T04:12:11.855Z,100644
2016-02-01T04:12:22.355Z,100644
2016-02-01T04:12:32.746Z,100647
2016-02-01T04:12:43.308Z,100636
2016-02-01T04:12:53.402Z,100638
2016-02-01T04:13:03.605Z,100638
2016-02-01T04:13:13.904Z,100647
2016-02-01T04:13:24.123Z,100639
2016-02-01T04:14:26.829Z,100650
2016-02-01T04:15:28.660Z,100635
2016-02-01T04:15:38.926Z,100638
2016-02-01T04:15:49.129Z,100644
2016-02-01T04:15:59.519Z,100641